createdAt,value
2023-03-23T15:57:54.129Z,100014.25
2023-03-23T16:00:24.792Z,100015.19
2023-03-23T16:02:57.545Z,100016.25
2023-03-23T16:05:29.252Z,100012.00
2023-03-23T16:07:59.392Z,100017.69
2023-03-23T16:10:29.666Z,100019.41
2023-03-23T16:12:59.693Z,100023.88
2023-03-23T16:15:29.327Z,100018.63
2023-03-23T16:17:59.479Z,100023.88
2023-03-23T16:20:33.502Z,100021.22
2023-03-23T16:23:03.674Z,100021.34
2023-03-23T16:25:33.531Z,100027.72
2023-03-23T16:28:03.511Z,100022.44
2023-03-23T16:30:35.009Z,100029.56
2023-03-23T16:33:05.098Z,100030.41
2023-03-23T16:35:37.808Z,100025.16
2023-03-23T16:38:09.991Z,100028.03
2023-03-23T16:40:39.876Z,100033.28
2023-03-23T16:43:09.862Z,100037.00
2023-03-23T16:45:42.421Z,100036.16
2023-03-23T16:48:14.413Z,100044.25
2023-03-23T16:50:45.957Z,100048.78
2023-03-23T16:53:16.529Z,100050.31
2023-03-23T16:55:49.909Z,100042.31
2023-03-23T16:58:22.299Z,100149.31
2023-03-23T17:00:54.368Z,100183.63
2023-03-23T17:03:27.091Z,100172.47
2023-03-23T17:06:09.089Z,100170.53
2023-03-23T17:08:46.169Z,100161.97
2023-03-23T17:11:18.400Z,100160.28
2023-03-23T17:13:50.300Z,100149.72
2023-03-23T17:16:21.761Z,100148.88
2023-03-23T17:18:52.585Z,100141.16
2023-03-23T17:21:26.115Z,100127.03
2023-03-23T17:23:56.351Z,100129.75
2023-03-23T17:26:26.444Z,100131.56
2023-03-23T17:28:56.427Z,100132.41
2023-03-23T17:31:28.472Z,100122.72
2023-03-23T17:34:19.874Z,100128.84
2023-03-23T17:36:51.620Z,100121.91
2023-03-23T17:39:22.269Z,100127.34
2023-03-23T17:41:54.675Z,100120.25
2023-03-23T17:44:25.739Z,100139.63
2023-03-23T17:46:56.780Z,100139.59
2023-03-23T17:49:26.840Z,100136.06
2023-03-23T17:51:58.922Z,100141.38
2023-03-23T17:54:29.866Z,100151.16
2023-03-23T17:57:04.274Z,100151.00
2023-03-23T17:59:34.490Z,100147.44
2023-03-23T18:02:04.142Z,100142.25
2023-03-23T18:04:34.251Z,100151.97
2023-03-23T18:07:05.669Z,100159.13
2023-03-23T18:09:36.175Z,100154.66
2023-03-23T18:12:06.055Z,100153.75
2023-03-23T18:14:36.331Z,100149.34
2023-03-23T18:17:06.136Z,100151.06
2023-03-23T18:19:37.030Z,100154.56
2023-03-23T18:22:08.313Z,100142.16
2023-03-23T18:24:38.477Z,100158.03
2023-03-23T18:27:08.839Z,100148.31
2023-03-23T18:29:38.867Z,100159.78
2023-03-23T18:32:08.908Z,100167.78
2023-03-23T18:34:42.216Z,100163.34
2023-03-23T18:37:13.541Z,100167.75
2023-03-23T18:39:43.483Z,100175.78
2023-03-23T18:42:13.272Z,100178.41
2023-03-23T18:44:43.421Z,100182.81
2023-03-23T18:47:13.204Z,100198.78
2023-03-23T18:49:43.084Z,100185.50
2023-03-23T18:52:14.677Z,100171.38
2023-03-23T18:54:45.543Z,100187.25
2023-03-23T18:57:15.703Z,100189.00
2023-03-23T18:59:45.663Z,100219.13
2023-03-23T19:02:18.548Z,100208.59
2023-03-23T19:04:48.737Z,100207.66
2023-03-23T19:07:20.185Z,100189.97
2023-03-23T19:09:53.044Z,100192.56
2023-03-23T19:12:23.493Z,100198.78
2023-03-23T19:14:53.732Z,100205.00
2023-03-23T19:17:25.388Z,100212.13
2023-03-23T19:19:55.393Z,100216.53
2023-03-23T19:22:26.539Z,100211.22
2023-03-23T19:24:56.495Z,100212.97
2023-03-23T19:27:26.394Z,100210.31
2023-03-23T19:29:56.564Z,100216.50
2023-03-23T19:32:26.443Z,100217.34
2023-03-23T19:34:56.670Z,100215.44
2023-03-23T19:37:28.057Z,100218.88
2023-03-23T19:40:00.093Z,100237.28
2023-03-23T19:42:29.960Z,100243.41
2023-03-23T19:44:59.974Z,100250.34
2023-03-23T19:47:29.892Z,100242.31
2023-03-23T19:50:01.238Z,100238.63
2023-03-23T19:52:32.388Z,100243.03
2023-03-23T19:55:02.907Z,100235.06
2023-03-23T19:57:32.832Z,100235.06
2023-03-23T20:00:03.077Z,100240.22
2023-03-23T20:02:34.283Z,100237.56
2023-03-23T20:05:04.885Z,100249.94
2023-03-23T20:07:40.799Z,100249.94
2023-03-23T20:10:12.343Z,100260.44
2023-03-23T20:12:42.473Z,100271.91
2023-03-23T20:15:12.580Z,100274.50
2023-03-23T20:17:42.514Z,100278.00
2023-03-23T20:20:12.881Z,100269.94
2023-03-23T20:22:44.110Z,100272.50
2023-03-23T20:25:14.568Z,100272.53
2023-03-23T20:27:45.009Z,100243.34
2023-03-23T20:30:15.656Z,100209.91
2023-03-23T20:32:46.754Z,100211.78
2023-03-23T20:35:16.872Z,100218.03
2023-03-23T20:37:50.854Z,100222.66
2023-03-23T20:40:21.973Z,100210.41
2023-03-23T20:42:54.591Z,100214.06
2023-03-23T20:45:24.691Z,100209.75
2023-03-23T20:47:54.940Z,100208.13
2023-03-23T20:50:25.204Z,100221.47
2023-03-23T20:52:57.689Z,100226.06
2023-03-23T20:55:27.955Z,100226.16
2023-03-23T20:57:59.648Z,100229.75
2023-03-23T21:00:29.667Z,100232.56
2023-03-23T21:02:59.335Z,100251.16
2023-03-23T21:05:29.411Z,100252.06
2023-03-23T21:08:00.512Z,100240.63
2023-03-23T21:10:30.706Z,100239.69
2023-03-23T21:13:00.426Z,100240.63
2023-03-23T21:15:30.882Z,100245.09
2023-03-23T21:18:00.524Z,100230.16
2023-03-23T21:20:30.659Z,100239.88
2023-03-23T21:23:03.012Z,100237.25
2023-03-23T21:25:35.442Z,100240.00
2023-03-23T21:28:06.968Z,100249.72
2023-03-23T21:30:37.021Z,100245.31
2023-03-23T21:33:08.374Z,100248.88
2023-03-23T21:35:38.726Z,100244.53
2023-03-23T21:38:14.491Z,100248.06
2023-03-23T21:40:45.084Z,100245.44
2023-03-23T21:43:16.749Z,100243.78
2023-03-23T21:45:47.141Z,100238.47
2023-03-23T21:48:16.939Z,100236.69
2023-03-23T21:50:47.030Z,100234.91
2023-03-23T21:53:18.781Z,100241.19
2023-03-23T21:55:51.649Z,100240.38
2023-03-23T21:58:22.205Z,100243.09
2023-03-23T22:00:54.338Z,100244.00
2023-03-23T22:03:24.769Z,100241.38
2023-03-23T22:05:55.705Z,100245.03
2023-03-23T22:08:28.054Z,100250.38
2023-03-23T22:11:01.845Z,100256.66
2023-03-23T22:13:32.901Z,100262.00
2023-03-23T22:16:03.900Z,100260.28
2023-03-23T22:18:35.001Z,100257.66
2023-03-23T22:21:05.710Z,100255.03
2023-03-23T22:23:37.179Z,100263.78
2023-03-23T22:26:07.727Z,100254.06
2023-03-23T22:28:38.575Z,100248.75
2023-03-23T22:31:10.142Z,100247.81
2023-03-23T22:33:40.373Z,100261.13
2023-03-23T22:36:10.990Z,100251.50
2023-03-23T22:38:43.679Z,100261.06
2023-03-23T22:41:17.090Z,100253.94
2023-03-23T22:43:46.978Z,100245.06
2023-03-23T22:46:17.245Z,100251.22
2023-03-23T22:48:47.300Z,100252.06
2023-03-23T22:51:19.601Z,100249.28
2023-03-23T22:53:51.330Z,100250.94
2023-03-23T22:56:21.798Z,100257.94
2023-03-23T22:58:51.539Z,100260.59
2023-03-23T23:01:22.567Z,100275.53
2023-03-23T23:03:52.415Z,100271.09
2023-03-23T23:06:22.738Z,100264.88
2023-03-23T23:08:53.948Z,100261.38
2023-03-23T23:11:24.866Z,100258.72
2023-03-23T23:13:54.495Z,100259.56
2023-03-23T23:16:26.521Z,100267.50
2023-03-23T23:18:56.748Z,100268.38
2023-03-23T23:21:29.271Z,100278.13
2023-03-23T23:24:00.541Z,100275.44
2023-03-23T23:26:31.140Z,100263.09
2023-03-23T23:29:01.437Z,100280.75
2023-03-23T23:31:33.904Z,100279.94
2023-03-23T23:34:04.045Z,100279.97
2023-03-23T23:36:34.224Z,100280.91
2023-03-23T23:39:06.076Z,100276.53
2023-03-23T23:41:36.351Z,100278.28
2023-03-23T23:44:06.461Z,100269.47
2023-03-23T23:46:36.914Z,100280.97
2023-03-23T23:49:07.309Z,100277.50
2023-03-23T23:51:37.947Z,100281.06
2023-03-23T23:54:09.152Z,100286.41
2023-03-23T23:56:39.262Z,100295.25
2023-03-23T23:59:09.141Z,100296.16
